Time;durP1;ratioP1;P1;durP2;ratioP2;P2;SDS_P1;SDS_P2;PMS_P1;PMS_P2;Temp;Humidity;BMP_temperature;BMP_pressure;BME280_temperature;BME280_humidity;BME280_pressure;Samples;Min_cycle;Max_cycle;Signal;HPM_P1;HPM_P2
2021/01/21 00:00:50;;;;;;;8.00;3.87;;;4.30;99.90;;;;;;4905074;29;20043;-92
2021/01/21 00:03:16;;;;;;;7.40;3.23;;;4.20;99.90;;;;;;4903533;29;20057;-92
2021/01/21 00:05:41;;;;;;;9.30;4.20;;;4.20;99.90;;;;;;4901220;29;20032;-92
2021/01/21 00:08:07;;;;;;;12.70;5.80;;;4.10;99.90;;;;;;4903829;29;20031;-92
2021/01/21 00:10:33;;;;;;;10.57;5.73;;;3.90;99.90;;;;;;4903517;29;20051;-93
2021/01/21 00:12:58;;;;;;;13.20;6.63;;;3.70;99.90;;;;;;4902618;29;20024;-92
2021/01/21 00:15:24;;;;;;;11.67;6.37;;;3.50;99.90;;;;;;4901881;29;20020;-92
2021/01/21 00:17:52;;;;;;;13.47;7.13;;;3.40;99.90;;;;;;4912122;29;20036;-91
2021/01/21 00:20:19;;;;;;;12.00;6.17;;;3.30;99.90;;;;;;4902636;29;20039;-92
2021/01/21 00:22:45;;;;;;;10.97;5.93;;;3.30;99.90;;;;;;4902873;29;20023;-93
2021/01/21 00:25:11;;;;;;;11.77;5.73;;;3.30;99.90;;;;;;4915945;29;20040;-91
2021/01/21 00:27:46;;;;;;;13.47;5.63;;;3.20;99.90;;;;;;4901583;29;20083;-93
2021/01/21 00:30:13;;;;;;;9.63;5.17;;;3.20;99.90;;;;;;4898043;29;20028;-92
2021/01/21 00:32:39;;;;;;;8.30;4.80;;;3.10;99.90;;;;;;4904031;29;20028;-93
2021/01/21 00:35:05;;;;;;;9.30;5.23;;;3.20;99.90;;;;;;4908324;29;20438;-91
2021/01/21 00:37:31;;;;;;;11.17;4.80;;;3.10;99.90;;;;;;4902994;29;20044;-93
2021/01/21 00:39:57;;;;;;;8.70;4.93;;;3.20;99.90;;;;;;4901627;29;20039;-91
2021/01/21 07:23:56;;;;;;;0.90;0.30;;;9.00;92.70;;;;;;4955056;28;20043;-92
2021/01/21 07:26:41;;;;;;;1.23;0.23;;;9.20;93.10;;;;;;4935554;28;20023;-91
2021/01/21 07:29:37;;;;;;;1.27;0.50;;;8.90;94.50;;;;;;4936373;29;20035;-91
2021/01/21 07:32:04;;;;;;;1.53;0.37;;;8.90;95.70;;;;;;4933174;29;20039;-90
2021/01/21 07:34:47;;;;;;;1.93;0.30;;;8.90;96.90;;;;;;4933330;29;20151;-90
2021/01/21 07:37:17;;;;;;;1.47;0.30;;;8.90;97.30;;;;;;4936916;29;20540;-91
2021/01/21 07:40:02;;;;;;;1.50;0.50;;;8.90;97.40;;;;;;4935236;29;20031;-92
2021/01/21 07:42:37;;;;;;;1.43;0.30;;;9.00;97.50;;;;;;4931081;29;20046;-88
2021/01/21 07:45:21;;;;;;;0.73;0.20;;;8.90;98.60;;;;;;4948440;28;20027;-86
2021/01/21 07:47:48;;;;;;;1.40;0.40;;;8.70;98.70;;;;;;4945842;29;20065;-88
2021/01/21 07:50:19;;;;;;;0.70;0.30;;;8.80;99.20;;;;;;4932586;29;20134;-89
2021/01/21 07:52:45;;;;;;;0.20;0.10;;;8.60;99.10;;;;;;4931160;29;20144;-89
2021/01/21 07:55:11;;;;;;;2.10;0.40;;;8.80;99.20;;;;;;4942382;29;20027;-89
2021/01/21 07:57:53;;;;;;;1.37;0.77;;;8.70;99.20;;;;;;4944554;28;20015;-91
2021/01/21 08:00:33;;;;;;;1.77;0.47;;;8.80;99.40;;;;;;4957093;28;20149;-90
2021/01/21 08:03:12;;;;;;;1.00;0.33;;;8.70;99.60;;;;;;4954019;28;20026;-91
2021/01/21 08:05:50;;;;;;;2.57;0.50;;;8.90;99.70;;;;;;4958246;28;20106;-92
2021/01/21 08:08:18;;;;;;;3.53;0.47;;;9.00;99.60;;;;;;4958893;28;20011;-91
2021/01/21 08:10:44;;;;;;;1.37;0.43;;;8.90;99.80;;;;;;4958100;28;20035;-91
2021/01/21 08:13:15;;;;;;;1.13;0.40;;;9.10;99.10;;;;;;4954511;28;20027;-91
2021/01/21 08:15:41;;;;;;;1.03;0.30;;;9.00;99.70;;;;;;4957834;28;20099;-92
2021/01/21 08:18:15;;;;;;;2.33;0.30;;;9.10;99.20;;;;;;4953858;28;20087;-92
2021/01/21 08:20:41;;;;;;;0.90;0.30;;;9.10;99.60;;;;;;4952439;28;20051;-92
2021/01/21 08:23:14;;;;;;;2.00;0.40;;;9.20;99.70;;;;;;4949553;28;20027;-93
2021/01/21 08:25:45;;;;;;;0.97;0.30;;;9.20;99.90;;;;;;4949607;28;20019;-92
2021/01/21 08:28:20;;;;;;;1.10;0.20;;;9.30;99.90;;;;;;4956130;28;20037;-89
2021/01/21 08:30:49;;;;;;;1.70;0.30;;;9.50;99.90;;;;;;4948955;28;20035;-93
2021/01/21 08:33:21;;;;;;;0.50;0.20;;;9.60;99.90;;;;;;4956304;28;20116;-92
2021/01/21 08:35:55;;;;;;;2.25;0.32;;;9.50;99.90;;;;;;4957079;28;20046;-91
2021/01/21 08:38:35;;;;;;;1.03;0.30;;;9.50;99.90;;;;;;4953146;28;20039;-92
2021/01/21 08:41:02;;;;;;;3.27;0.40;;;9.50;99.90;;;;;;4967836;28;20027;-92
2021/01/21 08:43:29;;;;;;;1.73;0.20;;;9.40;99.90;;;;;;4963184;28;20083;-90
2021/01/21 08:45:56;;;;;;;1.40;0.20;;;9.40;99.90;;;;;;4955174;28;20020;-89
2021/01/21 08:48:32;;;;;;;1.47;0.40;;;9.50;99.90;;;;;;4966217;28;20011;-91
2021/01/21 08:51:27;;;;;;;1.03;0.20;;;9.50;99.90;;;;;;4952962;28;20026;-91
2021/01/21 08:54:08;;;;;;;7.90;0.50;;;9.60;99.90;;;;;;4929713;28;20024;-90
2021/01/21 08:56:33;;;;;;;0.53;0.20;;;9.70;99.90;;;;;;4963695;28;20117;-89
2021/01/21 08:58:59;;;;;;;2.17;0.30;;;9.60;99.90;;;;;;4967650;28;20012;-90
2021/01/21 09:01:50;;;;;;;0.70;0.20;;;9.50;99.90;;;;;;4954495;28;20051;-91
2021/01/21 09:15:02;;;;;;;1.47;0.40;;;9.40;99.90;;;;;;4752466;26;20505;-89
2021/01/21 09:17:37;;;;;;;1.37;0.30;;;9.60;99.90;;;;;;4893675;29;20559;-89
2021/01/21 09:20:30;;;;;;;1.90;0.50;;;9.60;99.90;;;;;;4895337;29;20024;-91
2021/01/21 09:22:56;;;;;;;1.20;0.30;;;9.70;99.90;;;;;;4914152;29;20037;-90
2021/01/21 09:25:27;;;;;;;1.00;0.40;;;9.70;99.90;;;;;;4923946;29;20123;-90
2021/01/21 09:28:01;;;;;;;0.93;0.30;;;9.90;99.90;;;;;;4903096;29;20035;-92
2021/01/21 09:30:27;;;;;;;1.10;0.30;;;10.00;99.90;;;;;;4896011;29;20053;-89
2021/01/21 09:45:50;;;;;;;2.13;0.30;;;10.00;99.90;;;;;;3569437;23;20078;-93
2021/01/21 09:48:24;;;;;;;0.68;0.30;;;10.00;99.90;;;;;;4948931;29;20089;-93
2021/01/21 09:50:54;;;;;;;0.60;0.20;;;10.00;99.90;;;;;;4956510;28;20027;-93
2021/01/21 09:53:36;;;;;;;0.93;0.30;;;10.00;99.90;;;;;;4946209;28;20039;-90
2021/01/21 09:56:02;;;;;;;0.90;0.40;;;10.00;99.90;;;;;;4940812;29;20078;-94
2021/01/21 09:58:27;;;;;;;0.73;0.20;;;10.10;99.90;;;;;;4957436;28;20038;-93
2021/01/21 10:00:53;;;;;;;1.67;0.20;;;10.10;99.90;;;;;;4948160;29;20147;-91
2021/01/21 10:03:19;;;;;;;0.70;0.20;;;10.10;99.90;;;;;;4953729;29;20016;-92
2021/01/21 10:05:49;;;;;;;1.20;0.30;;;10.20;99.90;;;;;;4941360;29;20028;-93
2021/01/21 10:08:15;;;;;;;1.65;0.28;;;10.10;99.90;;;;;;4949004;29;20122;-91
2021/01/21 10:10:41;;;;;;;0.50;0.20;;;10.20;99.90;;;;;;4957913;29;20437;-92
2021/01/21 10:13:40;;;;;;;1.57;0.20;;;10.30;99.90;;;;;;4945643;29;20079;-93
2021/01/21 10:16:07;;;;;;;0.73;0.20;;;10.20;99.90;;;;;;4959205;28;20111;-91
2021/01/21 10:18:32;;;;;;;0.57;0.30;;;10.30;99.90;;;;;;4940787;29;20031;-93
2021/01/21 10:20:58;;;;;;;1.33;0.35;;;10.40;99.90;;;;;;4951576;29;20039;-92
2021/01/21 10:23:24;;;;;;;1.85;0.25;;;10.30;99.90;;;;;;4948010;29;20115;-91
2021/01/21 10:25:50;;;;;;;2.00;0.30;;;10.20;99.90;;;;;;4963176;29;20034;-92
2021/01/21 10:28:15;;;;;;;0.77;0.30;;;10.30;99.90;;;;;;4958515;29;20037;-90
2021/01/21 10:30:41;;;;;;;2.00;0.28;;;10.40;99.90;;;;;;4963354;29;20061;-91
2021/01/21 10:33:08;;;;;;;0.70;0.20;;;10.60;99.90;;;;;;4945883;28;20153;-91
2021/01/21 10:35:34;;;;;;;1.30;0.28;;;10.80;99.90;;;;;;4946368;29;20031;-93
2021/01/21 10:38:01;;;;;;;0.30;0.10;;;10.80;99.90;;;;;;4963458;28;20028;-93
2021/01/21 10:40:29;;;;;;;1.38;0.28;;;10.90;99.90;;;;;;4962131;28;20034;-93
2021/01/21 10:42:54;;;;;;;0.82;0.30;;;10.80;99.90;;;;;;4949115;29;20039;-92
2021/01/21 10:45:20;;;;;;;1.50;0.40;;;10.70;99.90;;;;;;4942331;29;20028;-92
2021/01/21 10:47:46;;;;;;;2.08;0.20;;;10.70;99.90;;;;;;4944691;29;20050;-93
2021/01/21 10:50:12;;;;;;;1.35;0.20;;;10.80;99.90;;;;;;4949406;29;20034;-92
2021/01/21 10:52:38;;;;;;;1.83;0.30;;;10.80;99.90;;;;;;4954533;28;20050;-91
2021/01/21 10:55:03;;;;;;;1.55;0.45;;;10.90;99.90;;;;;;4951822;28;20027;-92
2021/01/21 10:57:29;;;;;;;0.85;0.28;;;11.00;99.90;;;;;;4930195;29;20042;-92
2021/01/21 10:59:55;;;;;;;0.47;0.20;;;11.10;99.90;;;;;;4949082;28;20015;-92
2021/01/21 11:02:20;;;;;;;0.98;0.30;;;11.00;99.90;;;;;;4942369;29;20028;-92
2021/01/21 11:04:46;;;;;;;0.70;0.10;;;11.20;99.90;;;;;;4947533;28;20035;-92
2021/01/21 11:07:12;;;;;;;2.30;0.77;;;11.20;99.90;;;;;;4958246;28;20047;-93
2021/01/21 11:09:37;;;;;;;1.88;0.40;;;11.20;99.90;;;;;;4957763;28;20121;-93
2021/01/21 11:12:05;;;;;;;3.25;0.43;;;11.10;99.90;;;;;;4953973;28;20011;-91
2021/01/21 11:14:31;;;;;;;2.10;0.30;;;11.10;99.90;;;;;;4954512;28;20019;-91
2021/01/21 11:16:57;;;;;;;0.80;0.22;;;11.10;99.90;;;;;;4953523;28;20075;-91
2021/01/21 11:19:23;;;;;;;2.10;0.30;;;11.00;99.90;;;;;;4956599;28;20027;-92
2021/01/21 11:21:53;;;;;;;1.75;0.60;;;10.90;99.90;;;;;;4964330;28;20031;-91
2021/01/21 11:24:20;;;;;;;2.40;0.88;;;10.80;99.90;;;;;;4964999;28;20046;-91
2021/01/21 11:26:46;;;;;;;0.90;0.30;;;10.70;99.90;;;;;;4962921;28;20027;-92
2021/01/21 11:29:12;;;;;;;1.58;0.35;;;10.50;99.90;;;;;;4962964;28;20034;-92
2021/01/21 11:31:38;;;;;;;1.85;0.40;;;10.60;99.90;;;;;;4949896;28;20026;-92
2021/01/21 11:34:04;;;;;;;1.08;0.40;;;10.40;99.90;;;;;;4961193;28;20036;-92
2021/01/21 11:36:29;;;;;;;2.05;0.50;;;10.30;99.90;;;;;;4964223;28;20053;-90
2021/01/21 11:38:55;;;;;;;0.93;0.35;;;10.30;99.90;;;;;;4944974;28;20035;-91
2021/01/21 11:41:21;;;;;;;3.30;0.40;;;10.40;99.90;;;;;;4947019;28;20054;-90
2021/01/21 11:43:46;;;;;;;1.45;0.40;;;10.50;99.90;;;;;;4965811;28;20015;-92
2021/01/21 11:46:12;;;;;;;1.13;0.40;;;10.50;99.90;;;;;;4959596;28;20042;-92
2021/01/21 11:48:38;;;;;;;1.75;0.38;;;10.50;99.90;;;;;;4966135;28;20038;-93
2021/01/21 11:51:03;;;;;;;1.63;0.47;;;10.50;99.90;;;;;;4952791;28;20059;-93
2021/01/21 11:53:29;;;;;;;1.48;0.40;;;10.60;99.90;;;;;;4966529;28;20047;-93
2021/01/21 11:55:55;;;;;;;3.20;0.52;;;10.50;99.90;;;;;;4955254;28;20574;-92
2021/01/21 11:58:21;;;;;;;3.80;0.45;;;10.70;99.90;;;;;;4967073;28;20019;-92
2021/01/21 12:00:46;;;;;;;1.48;0.35;;;10.80;99.90;;;;;;4962547;28;20090;-93
2021/01/21 12:03:12;;;;;;;1.25;0.22;;;10.80;99.90;;;;;;4962385;28;20027;-93
2021/01/21 12:05:39;;;;;;;4.93;0.63;;;10.80;99.90;;;;;;4967245;28;20114;-94
2021/01/21 12:08:05;;;;;;;2.65;0.50;;;10.90;99.90;;;;;;4953256;28;20022;-93
2021/01/21 12:10:31;;;;;;;2.05;0.50;;;10.90;99.90;;;;;;4972878;28;20086;-94
2021/01/21 12:12:57;;;;;;;2.78;0.38;;;10.90;99.90;;;;;;4955587;28;20023;-93
2021/01/21 12:15:23;;;;;;;1.17;0.40;;;10.90;99.90;;;;;;4960389;28;20029;-94
2021/01/21 12:17:49;;;;;;;0.60;0.20;;;10.90;99.90;;;;;;4957416;28;20023;-93
2021/01/21 12:20:16;;;;;;;0.50;0.20;;;10.90;99.90;;;;;;4963978;28;20063;-93
2021/01/21 12:22:42;;;;;;;1.08;0.40;;;11.00;99.90;;;;;;4972324;28;20031;-93
2021/01/21 12:25:08;;;;;;;3.92;0.20;;;11.10;99.90;;;;;;4958944;28;20020;-92
2021/01/21 12:27:34;;;;;;;1.13;0.28;;;11.00;99.90;;;;;;4969872;28;20016;-93
2021/01/21 12:30:00;;;;;;;1.20;0.30;;;11.10;99.90;;;;;;4954192;28;20044;-92
2021/01/21 12:32:25;;;;;;;1.38;0.40;;;11.10;99.90;;;;;;4965485;28;20046;-93
2021/01/21 12:34:51;;;;;;;1.05;0.30;;;11.00;99.90;;;;;;4949991;29;20043;-92
2021/01/21 12:37:16;;;;;;;2.97;0.50;;;11.10;99.90;;;;;;4967518;28;20111;-92
2021/01/21 12:39:42;;;;;;;1.52;0.40;;;11.10;99.90;;;;;;4959584;28;20183;-93
2021/01/21 12:42:08;;;;;;;1.02;0.30;;;11.10;99.90;;;;;;4972133;28;20031;-92
2021/01/21 12:44:34;;;;;;;1.25;0.30;;;11.00;99.90;;;;;;4973962;28;20075;-92
2021/01/21 12:46:59;;;;;;;2.65;0.45;;;11.10;99.90;;;;;;4952103;28;20044;-92
2021/01/21 12:49:25;;;;;;;2.33;0.28;;;11.10;99.90;;;;;;4954887;28;20023;-92
2021/01/21 12:51:51;;;;;;;3.13;0.43;;;11.00;99.90;;;;;;4954913;28;20012;-92
2021/01/21 12:54:17;;;;;;;0.93;0.43;;;11.00;99.90;;;;;;4956345;28;20020;-93
2021/01/21 12:56:42;;;;;;;2.40;0.40;;;11.00;99.90;;;;;;4964964;28;20015;-93
2021/01/21 14:22:04;;;;;;;3.03;0.40;;;10.60;99.90;;;;;;4935384;29;20040;-93
2021/01/21 14:24:47;;;;;;;3.15;0.38;;;10.60;99.90;;;;;;4929645;29;20039;-93
2021/01/21 14:27:20;;;;;;;1.75;0.50;;;10.70;99.90;;;;;;4923949;29;20027;-93
2021/01/21 14:30:03;;;;;;;1.70;0.30;;;10.70;99.90;;;;;;4914520;29;20041;-94
2021/01/21 14:32:46;;;;;;;0.50;0.28;;;10.60;99.90;;;;;;4911863;29;20039;-94
2021/01/21 15:27:06;;;;;;;1.95;0.50;;;10.20;99.90;;;;;;4940362;29;20058;-94
2021/01/21 15:29:32;;;;;;;3.05;0.40;;;10.20;99.90;;;;;;4918822;29;20023;-89
